createdAt,value
2019-05-18T00:00:20.237Z,100958.62
2019-05-18T00:02:48.027Z,100956.49
2019-05-18T00:05:15.904Z,100952.55
2019-05-18T00:07:43.840Z,100949.96
2019-05-18T00:10:11.478Z,100950.44
2019-05-18T00:12:39.055Z,100944.30
2019-05-18T00:15:06.847Z,100945.21
2019-05-18T00:17:34.751Z,100940.84
2019-05-18T00:20:02.412Z,100938.22
2019-05-18T00:22:29.915Z,100941.34
2019-05-18T00:24:57.749Z,100938.72
2019-05-18T00:27:25.492Z,100937.43
2019-05-18T00:29:53.370Z,100940.06
2019-05-18T00:32:21.265Z,100936.13
2019-05-18T00:34:48.931Z,100931.34
2019-05-18T00:37:16.702Z,100933.53
2019-05-18T00:39:44.433Z,100936.66
2019-05-18T00:42:12.175Z,100929.69
2019-05-18T00:44:40.008Z,100931.00
2019-05-18T00:47:07.780Z,100930.09
2019-05-18T00:49:35.546Z,100928.81
2019-05-18T00:52:03.115Z,100925.78
2019-05-18T00:54:30.985Z,100925.37
2019-05-18T00:56:58.806Z,100927.12
2019-05-18T00:59:26.498Z,100926.25
2019-05-18T01:01:54.298Z,100930.66
2019-05-18T01:04:22.066Z,100932.00
2019-05-18T01:06:49.936Z,100929.38
2019-05-18T01:09:17.498Z,100925.47
2019-05-18T01:11:45.249Z,100925.06
2019-05-18T01:14:12.997Z,100927.25
2019-05-18T01:16:40.708Z,100931.22
2019-05-18T01:19:08.385Z,100929.47
2019-05-18T01:21:36.142Z,100931.25
2019-05-18T01:24:04.017Z,100919.03
2019-05-18T01:26:31.787Z,100928.22
2019-05-18T01:29:01.705Z,100926.00
2019-05-18T01:31:29.343Z,100926.97
2019-05-18T01:33:56.973Z,100920.44
2019-05-18T01:36:24.811Z,100924.38
2019-05-18T01:38:52.282Z,100930.52
2019-05-18T01:41:19.716Z,100928.34
2019-05-18T01:43:47.173Z,100925.31
2019-05-18T01:46:14.968Z,100920.97
2019-05-18T01:48:42.448Z,100918.75
2019-05-18T01:51:10.181Z,100922.69
2019-05-18T01:53:37.970Z,100923.16
2019-05-18T01:56:05.414Z,100918.81
2019-05-18T01:58:32.880Z,100916.22
2019-05-18T02:01:00.323Z,100916.66
2019-05-18T02:03:28.098Z,100904.84
2019-05-18T02:05:55.900Z,100917.97
2019-05-18T02:08:23.408Z,100913.16
2019-05-18T02:10:50.861Z,100916.69
2019-05-18T02:13:18.336Z,100914.09
2019-05-18T02:15:45.812Z,100914.09
2019-05-18T02:18:28.007Z,100918.05
2019-05-18T02:20:42.665Z,100912.81
2019-05-18T02:23:10.490Z,100910.63
2019-05-18T02:25:38.126Z,100910.69
2019-05-18T02:28:06.284Z,100910.69
2019-05-18T02:30:33.771Z,100912.44
2019-05-18T02:33:01.671Z,100908.53
2019-05-18T02:35:29.163Z,100907.69
2019-05-18T02:38:13.525Z,100903.78
2019-05-18T02:40:41.192Z,100905.09
2019-05-18T02:43:08.918Z,100905.50
2019-05-18T02:45:36.585Z,100903.78
2019-05-18T02:48:04.354Z,100902.03
2019-05-18T02:50:31.772Z,100900.72
2019-05-18T02:52:59.256Z,100898.59
2019-05-18T02:55:26.721Z,100898.63
2019-05-18T02:57:54.263Z,100896.00
2019-05-18T03:00:21.720Z,100896.88
2019-05-18T03:02:49.163Z,100901.72
2019-05-18T03:05:17.008Z,100896.53
2019-05-18T03:07:44.771Z,100880.13
2019-05-18T03:10:12.558Z,100887.81
2019-05-18T03:12:40.106Z,100886.51
2019-05-18T03:15:08.097Z,100887.41
2019-05-18T03:17:36.025Z,100881.79
2019-05-18T03:20:03.930Z,100887.03
2019-05-18T03:22:31.700Z,100883.53
2019-05-18T03:24:59.362Z,100885.31
2019-05-18T03:27:27.134Z,100882.29
2019-05-18T03:29:54.806Z,100882.31
2019-05-18T03:32:22.275Z,100888.84
2019-05-18T03:34:49.720Z,100880.53
2019-05-18T03:37:17.203Z,100877.08
2019-05-18T03:39:44.676Z,100878.41
2019-05-18T03:42:12.120Z,100874.48
2019-05-18T03:44:39.591Z,100874.45
2019-05-18T03:47:07.075Z,100873.17
2019-05-18T03:49:34.493Z,100876.70
2019-05-18T03:52:01.972Z,100878.47
2019-05-18T03:54:29.387Z,100880.25
2019-05-18T03:56:56.906Z,100881.97
2019-05-18T03:59:24.337Z,100884.59
2019-05-18T04:01:51.770Z,100880.25
2019-05-18T04:04:19.244Z,100883.31
2019-05-18T04:06:46.697Z,100884.59
2019-05-18T04:09:14.160Z,100883.31
2019-05-18T04:11:41.607Z,100885.05
2019-05-18T04:14:09.129Z,100885.53
2019-05-18T04:16:36.909Z,100883.34
2019-05-18T04:19:04.506Z,100889.45
2019-05-18T04:21:31.964Z,100886.37
2019-05-18T04:23:59.392Z,100892.08
2019-05-18T04:26:26.861Z,100890.77
2019-05-18T04:28:54.339Z,100889.89
2019-05-18T04:31:21.818Z,100882.91
2019-05-18T04:33:49.273Z,100885.53
2019-05-18T04:36:16.760Z,100886.43
2019-05-18T04:38:44.258Z,100888.58
2019-05-18T04:41:11.769Z,100882.03
2019-05-18T04:43:39.235Z,100888.98
2019-05-18T04:46:06.685Z,100875.45
2019-05-18T04:48:34.206Z,100881.09
2019-05-18T04:51:01.651Z,100882.88
2019-05-18T04:53:29.087Z,100878.94
2019-05-18T04:55:59.537Z,100878.06
2019-05-18T04:58:27.252Z,100882.00
2019-05-18T05:00:54.727Z,100879.78
2019-05-18T05:03:22.199Z,100889.86
2019-05-18T05:05:49.680Z,100889.43
2019-05-18T05:08:17.124Z,100884.59
2019-05-18T05:10:44.597Z,100889.81
2019-05-18T05:13:12.049Z,100885.00
2019-05-18T05:15:39.506Z,100884.53
2019-05-18T05:18:06.974Z,100881.41
2019-05-18T05:20:34.452Z,100884.44
2019-05-18T05:23:01.926Z,100886.62
2019-05-18T05:25:29.373Z,100886.16
2019-05-18T05:27:56.858Z,100887.47
2019-05-18T05:30:24.328Z,100882.64
2019-05-18T05:32:51.799Z,100869.52
2019-05-18T05:35:19.252Z,100874.70
2019-05-18T05:37:46.690Z,100867.68
2019-05-18T05:40:14.174Z,100876.86
2019-05-18T05:42:41.628Z,100871.59
2019-05-18T05:45:09.210Z,100885.11
2019-05-18T05:47:36.918Z,100880.73
2019-05-18T05:50:05.288Z,100885.52
2019-05-18T05:52:32.758Z,100882.86
2019-05-18T05:55:00.520Z,100882.42
2019-05-18T05:57:28.336Z,100881.52
2019-05-18T05:59:56.187Z,100881.02
2019-05-18T06:02:23.703Z,100878.36
2019-05-18T06:04:51.149Z,100883.95
2019-05-18T06:07:18.631Z,100875.52
2019-05-18T06:09:46.099Z,100868.05
2019-05-18T06:12:13.577Z,100871.55
2019-05-18T06:14:41.045Z,100878.98
2019-05-18T06:17:08.654Z,100874.14
2019-05-18T06:19:36.175Z,100868.84
2019-05-18T06:22:03.663Z,100874.89
2019-05-18T06:24:31.097Z,100874.89
2019-05-18T06:26:58.548Z,100875.30
2019-05-18T06:29:26.038Z,100873.11
2019-05-18T06:31:53.489Z,100871.70
2019-05-18T06:34:20.958Z,100870.42
2019-05-18T06:36:48.475Z,100874.30
2019-05-18T06:39:16.019Z,100871.64
2019-05-18T06:41:43.642Z,100874.63
2019-05-18T06:44:11.415Z,100876.79
2019-05-18T06:46:39.150Z,100877.59
2019-05-18T06:49:06.596Z,100884.56
2019-05-18T06:51:34.175Z,100885.81
2019-05-18T06:54:01.624Z,100882.25
2019-05-18T06:56:29.074Z,100887.87
2019-05-18T06:58:56.553Z,100881.70
2019-05-18T07:01:24.369Z,100885.17
2019-05-18T07:03:51.837Z,100884.67
2019-05-18T07:06:19.701Z,100888.58
2019-05-18T07:08:47.474Z,100890.66
2019-05-18T07:11:15.141Z,100887.13
2019-05-18T07:13:43.011Z,100891.50
2019-05-18T07:16:10.721Z,100885.34
2019-05-18T07:18:38.557Z,100884.47
2019-05-18T07:21:21.091Z,100880.91
2019-05-18T07:23:35.970Z,100880.91
2019-05-18T07:26:03.806Z,100885.68
2019-05-18T07:28:31.576Z,100878.20
2019-05-18T07:30:59.241Z,100870.73
2019-05-18T07:33:26.697Z,100875.95
2019-05-18T07:35:54.575Z,100874.20
2019-05-18T07:38:22.020Z,100874.60
2019-05-18T07:40:49.459Z,100872.81
2019-05-18T07:43:16.946Z,100873.59
2019-05-18T07:45:44.401Z,100874.39
2019-05-18T07:48:11.916Z,100879.61
2019-05-18T07:50:39.379Z,100876.08
2019-05-18T07:53:06.814Z,100876.91
2019-05-18T07:55:34.289Z,100868.96
2019-05-18T07:58:01.810Z,100868.05
2019-05-18T08:00:29.330Z,100874.95
2019-05-18T08:02:56.778Z,100868.34
2019-05-18T08:05:24.284Z,100874.44
2019-05-18T08:07:51.738Z,100877.00
2019-05-18T08:10:32.997Z,100876.09
2019-05-18T08:13:00.463Z,100876.92
2019-05-18T08:15:28.202Z,100877.73
2019-05-18T08:17:55.976Z,100867.63
2019-05-18T08:20:23.421Z,100869.77
2019-05-18T08:22:51.019Z,100872.30
2019-05-18T08:25:18.608Z,100865.69
2019-05-18T08:27:46.056Z,100871.74
2019-05-18T08:30:13.535Z,100871.67
2019-05-18T08:32:41.160Z,100865.94
2019-05-18T08:35:08.835Z,100863.23
2019-05-18T08:37:36.985Z,100863.64
2019-05-18T08:40:04.883Z,100857.42
2019-05-18T08:42:32.858Z,100859.14
2019-05-18T08:45:00.623Z,100863.45
2019-05-18T08:47:28.073Z,100861.69
2019-05-18T08:49:55.854Z,100864.68
2019-05-18T08:52:23.328Z,100862.02
2019-05-18T08:54:50.776Z,100861.06
2019-05-18T08:57:18.548Z,100860.15
2019-05-18T08:59:46.329Z,100857.01
2019-05-18T09:02:13.986Z,100852.59
2019-05-18T09:04:41.732Z,100854.70
2019-05-18T09:07:09.383Z,100855.13
2019-05-18T09:09:37.146Z,100855.94
2019-05-18T09:12:04.862Z,100856.73
2019-05-18T09:14:32.594Z,100851.91
2019-05-18T09:17:00.047Z,100852.71
2019-05-18T09:19:27.557Z,100852.67
2019-05-18T09:21:55.015Z,100858.73
2019-05-18T09:24:22.789Z,100851.28
2019-05-18T09:26:50.235Z,100855.11
2019-05-18T09:29:18.149Z,100852.84
2019-05-18T09:31:46.061Z,100850.17
2019-05-18T09:34:13.701Z,100849.20
2019-05-18T09:36:41.536Z,100839.52
2019-05-18T09:39:09.099Z,100843.83
2019-05-18T09:41:36.557Z,100840.23
2019-05-18T09:44:04.067Z,100837.97
2019-05-18T09:46:31.537Z,100839.23
2019-05-18T09:48:59.360Z,100841.35
2019-05-18T09:51:26.966Z,100839.55
2019-05-18T09:53:54.760Z,100836.87
2019-05-18T09:56:22.185Z,100835.45
2019-05-18T09:58:49.933Z,100836.63
2019-05-18T10:01:17.509Z,100839.17
2019-05-18T10:03:45.046Z,100829.84
2019-05-18T10:06:12.926Z,100825.81
2019-05-18T10:08:40.732Z,100835.86
2019-05-18T10:11:08.237Z,100828.76
2019-05-18T10:13:35.687Z,100829.98
2019-05-18T10:16:03.155Z,100827.31
2019-05-18T10:18:30.608Z,100821.52
2019-05-18T10:20:58.523Z,100824.94
2019-05-18T10:23:25.948Z,100823.63
2019-05-18T10:25:53.393Z,100826.17
2019-05-18T10:28:21.317Z,100820.81
2019-05-18T10:30:48.789Z,100825.52
2019-05-18T10:33:16.654Z,100821.16
2019-05-18T10:35:44.457Z,100816.25
2019-05-18T10:38:11.913Z,100819.98
2019-05-18T10:40:39.658Z,100815.59
2019-05-18T10:43:07.424Z,100816.03
2019-05-18T10:45:34.840Z,100805.86
2019-05-18T10:48:02.377Z,100806.06
2019-05-18T10:50:29.971Z,100809.80
2019-05-18T10:52:57.421Z,100813.60
2019-05-18T10:55:24.943Z,100810.88
2019-05-18T10:57:52.710Z,100799.37
2019-05-18T11:00:20.264Z,100794.45
2019-05-18T11:02:48.051Z,100797.83
2019-05-18T11:05:15.684Z,100794.22
2019-05-18T11:07:43.382Z,100794.62
2019-05-18T11:10:11.102Z,100794.92
2019-05-18T11:12:38.904Z,100785.59
2019-05-18T11:15:08.377Z,100787.31
2019-05-18T11:17:36.198Z,100783.36
2019-05-18T11:20:04.090Z,100782.39
2019-05-18T11:22:31.947Z,100777.84
2019-05-18T11:24:59.737Z,100778.92
2019-05-18T11:27:27.520Z,100782.73
2019-05-18T11:29:55.343Z,100780.86
2019-05-18T11:32:23.168Z,100775.45
2019-05-18T11:34:50.902Z,100777.06
2019-05-18T11:37:18.513Z,100775.64
2019-05-18T11:39:46.367Z,100776.86
2019-05-18T11:42:14.304Z,100777.20
2019-05-18T11:44:42.311Z,100777.59
2019-05-18T11:47:10.156Z,100774.85
2019-05-18T11:49:37.939Z,100768.60
2019-05-18T11:52:05.572Z,100774.75
2019-05-18T11:54:33.236Z,100775.92
2019-05-18T11:57:01.083Z,100768.70
2019-05-18T11:59:29.082Z,100772.55
2019-05-18T12:01:56.670Z,100766.77
2019-05-18T12:04:24.440Z,100768.20
2019-05-18T12:06:52.321Z,100762.28
2019-05-18T12:09:20.241Z,100765.60
2019-05-18T12:11:48.221Z,100766.81
2019-05-18T12:14:16.028Z,100765.77
2019-05-18T12:16:43.697Z,100765.63
2019-05-18T12:19:11.571Z,100761.12
2019-05-18T12:21:39.379Z,100760.14
2019-05-18T12:24:15.424Z,100760.86
2019-05-18T12:26:36.922Z,100765.16
2019-05-18T12:29:04.690Z,100762.02
2019-05-18T12:31:32.474Z,100763.19
2019-05-18T12:34:00.174Z,100762.80
2019-05-18T12:36:27.897Z,100760.64
2019-05-18T12:38:55.566Z,100756.20
2019-05-18T12:41:29.380Z,100758.38
2019-05-18T12:43:57.141Z,100756.91
2019-05-18T12:46:24.989Z,100759.16
2019-05-18T12:48:52.717Z,100758.00
2019-05-18T12:51:20.283Z,100755.22
2019-05-18T12:53:47.988Z,100751.95
2019-05-18T12:56:15.668Z,100753.55
2019-05-18T12:58:43.557Z,100749.45
2019-05-18T13:01:11.432Z,100753.47
2019-05-18T13:03:39.193Z,100750.44
2019-05-18T13:06:06.975Z,100747.62
2019-05-18T13:08:34.635Z,100751.86
2019-05-18T13:11:02.202Z,100749.01
2019-05-18T13:13:29.911Z,100745.92
2019-05-18T13:15:57.512Z,100744.48
2019-05-18T13:18:25.260Z,100741.69
2019-05-18T13:20:52.975Z,100736.30
2019-05-18T13:23:20.740Z,100743.61
2019-05-18T13:25:48.511Z,100742.63
2019-05-18T13:28:16.286Z,100735.91
2019-05-18T13:30:44.139Z,100743.28
2019-05-18T13:33:11.864Z,100739.69
2019-05-18T13:35:39.797Z,100733.41
2019-05-18T13:38:07.566Z,100732.36
2019-05-18T13:40:35.169Z,100726.08
2019-05-18T13:43:03.089Z,100728.13
2019-05-18T13:45:30.983Z,100728.90
2019-05-18T13:47:58.850Z,100724.39
2019-05-18T13:50:26.622Z,100725.56
2019-05-18T13:52:54.579Z,100723.66
2019-05-18T13:55:22.362Z,100718.70
2019-05-18T13:57:50.242Z,100714.20
2019-05-18T14:00:18.111Z,100713.14
2019-05-18T14:02:45.837Z,100713.47
2019-05-18T14:05:13.518Z,100715.44
2019-05-18T14:07:41.110Z,100715.70
2019-05-18T14:10:11.824Z,100714.80
2019-05-18T14:12:39.517Z,100718.21
2019-05-18T14:15:07.284Z,100718.21
2019-05-18T14:17:35.165Z,100717.80
2019-05-18T14:20:02.966Z,100718.12
2019-05-18T14:22:30.635Z,100709.48
2019-05-18T14:24:58.416Z,100709.22
2019-05-18T14:27:26.029Z,100711.34
2019-05-18T14:29:53.800Z,100710.73
2019-05-18T14:32:21.640Z,100689.84
2019-05-18T14:34:49.365Z,100703.34
2019-05-18T14:37:17.071Z,100703.65
2019-05-18T14:39:44.813Z,100703.55
2019-05-18T14:42:12.651Z,100706.25
2019-05-18T14:44:40.315Z,100710.16
2019-05-18T14:47:08.081Z,100693.86
2019-05-18T14:49:35.789Z,100699.41
2019-05-18T14:52:03.482Z,100698.39
2019-05-18T14:54:31.123Z,100695.69
2019-05-18T14:56:58.857Z,100693.11
2019-05-18T14:59:26.629Z,100697.28
2019-05-18T15:01:54.395Z,100689.69
2019-05-18T15:04:22.165Z,100683.40
2019-05-18T15:06:49.832Z,100685.84
2019-05-18T15:09:17.874Z,100683.64
2019-05-18T15:11:45.677Z,100688.74
2019-05-18T15:14:13.351Z,100684.91
2019-05-18T15:16:41.012Z,100684.84
2019-05-18T15:19:08.849Z,100679.77
2019-05-18T15:21:36.553Z,100671.19
2019-05-18T15:24:04.217Z,100677.67
2019-05-18T15:26:32.089Z,100681.46
2019-05-18T15:28:59.901Z,100680.36
2019-05-18T15:31:27.731Z,100679.20
2019-05-18T15:33:55.607Z,100682.64
2019-05-18T15:36:23.377Z,100682.53
2019-05-18T15:38:51.043Z,100683.02
2019-05-18T15:41:18.611Z,100682.30
2019-05-18T15:43:46.360Z,100680.13
2019-05-18T15:46:13.973Z,100683.04
2019-05-18T15:48:41.828Z,100677.97
2019-05-18T15:51:09.584Z,100681.48
2019-05-18T15:53:37.255Z,100677.13
2019-05-18T15:56:06.403Z,100670.96
2019-05-18T15:58:34.314Z,100670.02
2019-05-18T16:01:02.017Z,100670.40
2019-05-18T16:03:29.600Z,100667.67
2019-05-18T16:05:57.422Z,100674.08
2019-05-18T16:08:25.297Z,100672.49
2019-05-18T16:10:53.075Z,100670.15
2019-05-18T16:13:20.842Z,100669.84
2019-05-18T16:15:48.594Z,100671.05
2019-05-18T16:18:16.338Z,100669.00
2019-05-18T16:20:44.366Z,100671.27
2019-05-18T16:23:11.919Z,100667.37
2019-05-18T16:25:39.485Z,100671.52
2019-05-18T16:28:07.268Z,100672.05
2019-05-18T16:30:34.934Z,100676.59
2019-05-18T16:33:02.593Z,100669.97
2019-05-18T16:35:30.156Z,100673.45
2019-05-18T16:37:58.014Z,100670.98
2019-05-18T16:40:25.520Z,100673.22
2019-05-18T16:42:52.974Z,100674.01
2019-05-18T16:45:20.544Z,100677.11
2019-05-18T16:47:47.985Z,100673.52
2019-05-18T16:50:15.411Z,100674.78
2019-05-18T16:52:42.892Z,100678.75
2019-05-18T16:55:10.374Z,100677.34
2019-05-18T16:57:37.795Z,100684.77
2019-05-18T17:00:05.370Z,100683.34
2019-05-18T17:02:33.987Z,100685.07
2019-05-18T17:05:01.854Z,100679.77
2019-05-18T17:07:29.630Z,100686.86
2019-05-18T17:09:57.500Z,100690.68
2019-05-18T17:12:25.310Z,100692.00
2019-05-18T17:14:53.243Z,100693.70
2019-05-18T17:17:21.113Z,100694.02
2019-05-18T17:19:48.778Z,100697.20
2019-05-18T17:22:16.590Z,100692.90
2019-05-18T17:24:44.182Z,100697.41
2019-05-18T17:27:11.893Z,100698.77
2019-05-18T17:29:39.557Z,100704.53
2019-05-18T17:32:07.225Z,100705.52
2019-05-18T17:34:34.767Z,100700.36
2019-05-18T17:37:02.210Z,100706.35
2019-05-18T17:39:29.753Z,100704.08
2019-05-18T17:41:57.344Z,100708.39
2019-05-18T17:44:24.801Z,100712.18
2019-05-18T17:46:52.243Z,100709.45
2019-05-18T17:49:26.965Z,100707.67
2019-05-18T17:51:49.280Z,100709.83
2019-05-18T17:54:16.992Z,100711.16
2019-05-18T17:56:44.917Z,100708.50
2019-05-18T17:59:12.687Z,100705.47
2019-05-18T18:01:40.357Z,100711.64
2019-05-18T18:04:08.128Z,100711.56
2019-05-18T18:06:35.717Z,100714.30
2019-05-18T18:09:04.581Z,100721.30
2019-05-18T18:11:32.495Z,100718.01
2019-05-18T18:14:00.332Z,100712.89
2019-05-18T18:16:28.001Z,100716.45
2019-05-18T18:18:55.766Z,100717.02
2019-05-18T18:21:23.543Z,100710.40
2019-05-18T18:23:54.634Z,100713.05
2019-05-18T18:26:20.864Z,100715.39
2019-05-18T18:28:48.621Z,100715.63
2019-05-18T18:31:16.456Z,100721.65
2019-05-18T18:33:44.024Z,100720.02
2019-05-18T18:36:11.758Z,100713.95
2019-05-18T18:38:39.819Z,100718.92
2019-05-18T18:41:07.748Z,100717.86
2019-05-18T18:43:35.510Z,100724.25
2019-05-18T18:46:03.378Z,100724.02
2019-05-18T18:48:31.207Z,100725.16
2019-05-18T18:50:58.940Z,100728.91
2019-05-18T18:53:26.486Z,100730.17
2019-05-18T18:55:54.255Z,100728.30
2019-05-18T18:58:22.124Z,100730.80
2019-05-18T19:00:50.102Z,100729.80
2019-05-18T19:03:17.871Z,100734.44
2019-05-18T19:05:45.743Z,100730.22
2019-05-18T19:08:13.412Z,100729.53
2019-05-18T19:10:41.282Z,100730.93
2019-05-18T19:13:09.055Z,100732.57
2019-05-18T19:15:36.828Z,100738.08
2019-05-18T19:18:04.594Z,100732.47
2019-05-18T19:20:32.155Z,100739.27
2019-05-18T19:23:00.134Z,100742.05
2019-05-18T19:25:27.770Z,100745.30
2019-05-18T19:27:55.613Z,100753.83
2019-05-18T19:30:23.548Z,100751.35
2019-05-18T19:32:51.314Z,100751.95
2019-05-18T19:35:18.980Z,100754.83
2019-05-18T19:37:46.724Z,100762.52
2019-05-18T19:40:14.570Z,100761.09
2019-05-18T19:42:42.500Z,100761.91
2019-05-18T19:45:10.281Z,100757.93
2019-05-18T19:47:38.143Z,100764.74
2019-05-18T19:50:05.871Z,100761.88
2019-05-18T19:52:33.665Z,100760.70
2019-05-18T19:55:04.519Z,100762.37
2019-05-18T19:57:32.121Z,100765.59
2019-05-18T19:59:59.753Z,100772.49
2019-05-18T20:02:27.364Z,100772.78
2019-05-18T20:05:07.291Z,100769.59
2019-05-18T20:07:24.493Z,100769.08
2019-05-18T20:09:53.024Z,100770.20
2019-05-18T20:12:20.958Z,100773.36
2019-05-18T20:14:48.910Z,100774.73
2019-05-18T20:17:17.205Z,100774.90
2019-05-18T20:19:45.003Z,100772.05
2019-05-18T20:22:12.840Z,100765.25
2019-05-18T20:24:40.418Z,100769.37
2019-05-18T20:27:08.184Z,100776.16
2019-05-18T20:29:35.849Z,100781.78
2019-05-18T20:32:03.824Z,100780.77
2019-05-18T20:34:31.580Z,100779.23
2019-05-18T20:36:59.408Z,100779.41
2019-05-18T20:39:27.102Z,100774.73
2019-05-18T20:41:54.908Z,100777.37
2019-05-18T20:44:22.673Z,100781.95
2019-05-18T20:46:50.381Z,100776.94
2019-05-18T20:49:18.418Z,100781.16
2019-05-18T20:51:45.982Z,100780.08
2019-05-18T20:54:13.751Z,100780.67
2019-05-18T20:56:41.386Z,100774.58
2019-05-18T20:59:09.063Z,100782.16
2019-05-18T21:01:36.858Z,100789.30
2019-05-18T21:04:04.626Z,100790.34
2019-05-18T21:06:32.498Z,100785.56
2019-05-18T21:09:00.271Z,100788.73
2019-05-18T21:11:27.943Z,100791.91
2019-05-18T21:13:57.692Z,100779.67
2019-05-18T21:16:25.213Z,100780.66
2019-05-18T21:18:52.878Z,100783.83
2019-05-18T21:21:25.127Z,100780.42
2019-05-18T21:23:49.736Z,100780.59
2019-05-18T21:26:17.449Z,100778.94
2019-05-18T21:28:55.495Z,100780.37
2019-05-18T21:31:14.593Z,100780.95
2019-05-18T21:33:42.365Z,100782.72
2019-05-18T21:36:10.442Z,100787.20
2019-05-18T21:38:38.181Z,100785.61
2019-05-18T21:41:05.918Z,100789.17
2019-05-18T21:43:33.543Z,100791.86
2019-05-18T21:46:01.210Z,100791.97
2019-05-18T21:48:28.878Z,100791.23
2019-05-18T21:50:56.609Z,100789.52
2019-05-18T21:53:24.289Z,100787.44
2019-05-18T21:55:52.069Z,100794.17
2019-05-18T21:58:19.756Z,100785.05
2019-05-18T22:00:47.831Z,100787.30
2019-05-18T22:03:15.569Z,100790.03
2019-05-18T22:05:43.313Z,100791.94
2019-05-18T22:08:11.141Z,100797.26
2019-05-18T22:10:38.909Z,100797.75
2019-05-18T22:13:06.606Z,100794.77
2019-05-18T22:15:34.344Z,100790.43
2019-05-18T22:18:04.837Z,100786.13
2019-05-18T22:20:33.695Z,100791.06
2019-05-18T22:23:01.408Z,100790.23
2019-05-18T22:25:28.840Z,100792.14
2019-05-18T22:27:56.301Z,100792.67
2019-05-18T22:30:23.727Z,100789.21
2019-05-18T22:32:51.193Z,100784.47
2019-05-18T22:35:18.628Z,100783.65
2019-05-18T22:37:46.220Z,100784.14
2019-05-18T22:40:13.722Z,100782.00
2019-05-18T22:42:41.147Z,100782.05
2019-05-18T22:45:08.585Z,100783.45
2019-05-18T22:47:38.542Z,100781.80
2019-05-18T22:50:06.120Z,100783.61
2019-05-18T22:52:33.627Z,100780.18
2019-05-18T22:55:01.084Z,100777.64
2019-05-18T22:57:28.536Z,100775.45
2019-05-18T22:59:55.999Z,100774.19
2019-05-18T23:02:23.452Z,100769.89
2019-05-18T23:04:50.935Z,100770.86
2019-05-18T23:07:18.382Z,100768.28
2019-05-18T23:09:45.887Z,100766.56
2019-05-18T23:12:13.342Z,100764.03
2019-05-18T23:14:40.838Z,100764.03
2019-05-18T23:17:08.290Z,100765.00
2019-05-18T23:19:35.750Z,100761.19
2019-05-18T23:22:03.231Z,100761.67
2019-05-18T23:24:30.669Z,100763.97
2019-05-18T23:26:58.244Z,100763.17
2019-05-18T23:29:25.668Z,100769.33
2019-05-18T23:31:53.151Z,100764.59
2019-05-18T23:34:20.623Z,100768.54
2019-05-18T23:36:48.107Z,100769.06
2019-05-18T23:39:15.552Z,100756.78
2019-05-18T23:41:43.016Z,100756.83
2019-05-18T23:44:10.467Z,100753.85
2019-05-18T23:46:37.959Z,100754.77
2019-05-18T23:49:10.916Z,100753.06
2019-05-18T23:51:34.769Z,100753.98
2019-05-18T23:54:02.327Z,100756.66
2019-05-18T23:56:29.818Z,100751.05
2019-05-18T23:58:57.262Z,100745.83
